sensor_id;sensor_type;location;lat;lon;timestamp;pressure;altitude;pressure_sealevel;temperature;humidity
57056;BME280;42945;51.718;5.324;2023-02-01T00:00:20;101762.97;;;2.27;100.00
57056;BME280;42945;51.718;5.324;2023-02-01T00:02:46;101848.66;;;3.08;100.00
57056;BME280;42945;51.718;5.324;2023-02-01T00:05:11;101835.59;;;3.05;100.00
57056;BME280;42945;51.718;5.324;2023-02-01T00:07:37;101825.63;;;3.37;100.00
57056;BME280;42945;51.718;5.324;2023-02-01T00:10:03;101835.22;;;3.38;100.00
57056;BME280;42945;51.718;5.324;2023-02-01T00:12:30;101575.66;;;2.04;100.00
57056;BME280;42945;51.718;5.324;2023-02-01T00:14:55;101809.72;;;3.49;100.00
57056;BME280;42945;51.718;5.324;2023-02-01T00:17:21;101739.88;;;2.70;100.00
57056;BME280;42945;51.718;5.324;2023-02-01T00:19:46;101758.28;;;2.66;100.00
57056;BME280;42945;51.718;5.324;2023-02-01T00:22:11;101789.00;;;3.27;100.00
57056;BME280;42945;51.718;5.324;2023-02-01T00:24:36;101701.50;;;2.66;100.00
57056;BME280;42945;51.718;5.324;2023-02-01T00:27:02;101716.28;;;2.72;100.00
57056;BME280;42945;51.718;5.324;2023-02-01T00:29:27;101782.84;;;3.31;100.00
57056;BME280;42945;51.718;5.324;2023-02-01T00:31:52;101669.38;;;2.50;100.00
57056;BME280;42945;51.718;5.324;2023-02-01T00:34:19;101781.13;;;3.30;100.00
57056;BME280;42945;51.718;5.324;2023-02-01T00:36:45;101781.97;;;3.32;100.00
57056;BME280;42945;51.718;5.324;2023-02-01T00:39:11;101820.47;;;3.29;100.00
57056;BME280;42945;51.718;5.324;2023-02-01T00:41:37;101684.78;;;2.80;100.00
57056;BME280;42945;51.718;5.324;2023-02-01T00:44:03;101811.47;;;3.51;100.00
57056;BME280;42945;51.718;5.324;2023-02-01T00:46:29;101755.84;;;3.23;100.00
57056;BME280;42945;51.718;5.324;2023-02-01T00:48:55;101758.06;;;3.57;100.00
57056;BME280;42945;51.718;5.324;2023-02-01T00:51:23;101775.78;;;3.40;100.00
57056;BME280;42945;51.718;5.324;2023-02-01T00:53:49;101689.59;;;3.12;100.00
57056;BME280;42945;51.718;5.324;2023-02-01T00:56:15;101761.72;;;3.45;100.00
57056;BME280;42945;51.718;5.324;2023-02-01T00:58:41;101807.19;;;3.41;100.00
57056;BME280;42945;51.718;5.324;2023-02-01T01:01:14;101837.81;;;3.41;100.00
57056;BME280;42945;51.718;5.324;2023-02-01T01:03:43;101762.78;;;3.27;100.00
57056;BME280;42945;51.718;5.324;2023-02-01T01:06:12;101719.03;;;3.32;100.00
57056;BME280;42945;51.718;5.324;2023-02-01T01:08:38;101782.63;;;3.50;100.00
57056;BME280;42945;51.718;5.324;2023-02-01T01:11:09;101666.38;;;2.83;100.00
57056;BME280;42945;51.718;5.324;2023-02-01T01:13:36;101818.69;;;3.29;100.00
57056;BME280;42945;51.718;5.324;2023-02-01T01:16:04;101800.13;;;3.49;100.00
57056;BME280;42945;51.718;5.324;2023-02-01T01:18:31;101780.19;;;3.36;100.00
57056;BME280;42945;51.718;5.324;2023-02-01T01:20:57;101781.84;;;3.42;100.00
57056;BME280;42945;51.718;5.324;2023-02-01T01:23:22;101802.72;;;3.51;100.00
57056;BME280;42945;51.718;5.324;2023-02-01T01:25:48;101669.00;;;2.84;100.00
57056;BME280;42945;51.718;5.324;2023-02-01T01:28:13;101743.41;;;3.39;100.00
57056;BME280;42945;51.718;5.324;2023-02-01T01:30:39;101797.63;;;3.39;0.00
57056;BME280;42945;51.718;5.324;2023-02-01T01:33:04;101785.41;;;3.38;100.00
57056;BME280;42945;51.718;5.324;2023-02-01T01:35:30;101785.44;;;3.34;100.00
57056;BME280;42945;51.718;5.324;2023-02-01T01:37:56;101818.75;;;3.26;100.00
57056;BME280;42945;51.718;5.324;2023-02-01T01:40:22;101765.38;;;3.32;100.00
57056;BME280;42945;51.718;5.324;2023-02-01T01:42:47;101802.09;;;3.29;100.00
57056;BME280;42945;51.718;5.324;2023-02-01T01:47:52;101712.03;;;3.33;100.00
57056;BME280;42945;51.718;5.324;2023-02-01T01:50:21;101836.16;;;3.32;100.00
57056;BME280;42945;51.718;5.324;2023-02-01T01:52:49;101733.16;;;3.22;100.00
57056;BME280;42945;51.718;5.324;2023-02-01T01:55:18;101843.78;;;3.52;100.00
57056;BME280;42945;51.718;5.324;2023-02-01T01:57:49;101687.91;;;3.06;100.00
57056;BME280;42945;51.718;5.324;2023-02-01T02:00:19;101783.44;;;3.53;100.00
57056;BME280;42945;51.718;5.324;2023-02-01T02:02:47;101635.88;;;2.77;100.00
57056;BME280;42945;51.718;5.324;2023-02-01T02:05:16;101725.00;;;3.45;100.00
57056;BME280;42945;51.718;5.324;2023-02-01T02:07:46;101744.25;;;3.41;100.00
57056;BME280;42945;51.718;5.324;2023-02-01T02:10:14;101760.78;;;3.51;100.00
57056;BME280;42945;51.718;5.324;2023-02-01T02:12:42;101740.59;;;3.54;100.00
57056;BME280;42945;51.718;5.324;2023-02-01T02:15:11;101621.81;;;2.87;100.00
57056;BME280;42945;51.718;5.324;2023-02-01T02:18:04;101590.59;;;2.69;100.00
57056;BME280;42945;51.718;5.324;2023-02-01T02:20:55;101713.91;;;3.23;100.00
57056;BME280;42945;51.718;5.324;2023-02-01T02:26:50;101734.03;;;3.21;100.00
57056;BME280;42945;51.718;5.324;2023-02-01T02:29:50;101532.97;;;1.97;100.00
57056;BME280;42945;51.718;5.324;2023-02-01T02:35:29;101735.69;;;3.30;100.00
57056;BME280;42945;51.718;5.324;2023-02-01T02:38:05;101629.78;;;2.75;100.00
57056;BME280;42945;51.718;5.324;2023-02-01T02:43:39;101730.25;;;3.44;100.00
57056;BME280;42945;51.718;5.324;2023-02-01T02:46:41;101767.63;;;3.60;100.00
57056;BME280;42945;51.718;5.324;2023-02-01T02:49:42;101781.47;;;3.69;100.00
57056;BME280;42945;51.718;5.324;2023-02-01T02:52:33;101714.22;;;3.64;100.00
57056;BME280;42945;51.718;5.324;2023-02-01T02:55:21;101756.78;;;3.86;100.00
57056;BME280;42945;51.718;5.324;2023-02-01T02:57:47;101711.28;;;3.85;100.00
57056;BME280;42945;51.718;5.324;2023-02-01T03:00:32;101739.91;;;3.99;100.00
57056;BME280;42945;51.718;5.324;2023-02-01T03:03:17;101726.25;;;3.79;100.00
57056;BME280;42945;51.718;5.324;2023-02-01T03:06:01;101716.63;;;3.78;100.00
57056;BME280;42945;51.718;5.324;2023-02-01T03:08:28;101702.53;;;3.85;100.00
57056;BME280;42945;51.718;5.324;2023-02-01T03:11:01;101729.50;;;3.96;100.00
57056;BME280;42945;51.718;5.324;2023-02-01T03:16:09;101599.44;;;3.24;100.00
57056;BME280;42945;51.718;5.324;2023-02-01T03:18:50;101710.53;;;3.77;100.00
57056;BME280;42945;51.718;5.324;2023-02-01T03:21:24;101685.06;;;3.84;100.00
57056;BME280;42945;51.718;5.324;2023-02-01T03:23:51;101688.63;;;3.80;100.00
57056;BME280;42945;51.718;5.324;2023-02-01T03:26:20;101687.66;;;3.84;100.00
57056;BME280;42945;51.718;5.324;2023-02-01T03:28:55;101742.03;;;3.75;100.00
57056;BME280;42945;51.718;5.324;2023-02-01T03:31:23;101763.94;;;3.74;100.00
57056;BME280;42945;51.718;5.324;2023-02-01T03:33:50;101722.88;;;3.70;100.00
57056;BME280;42945;51.718;5.324;2023-02-01T03:36:29;101685.31;;;3.68;100.00
57056;BME280;42945;51.718;5.324;2023-02-01T03:41:35;101650.56;;;3.54;100.00
57056;BME280;42945;51.718;5.324;2023-02-01T03:44:23;101703.81;;;3.61;100.00
57056;BME280;42945;51.718;5.324;2023-02-01T03:47:37;101708.03;;;3.69;100.00
57056;BME280;42945;51.718;5.324;2023-02-01T03:49:42;101818.38;;;4.21;100.00
57056;BME280;42945;51.718;5.324;2023-02-01T03:52:13;101662.00;;;3.48;100.00
57056;BME280;42945;51.718;5.324;2023-02-01T03:54:40;101732.78;;;3.51;100.00
57056;BME280;42945;51.718;5.324;2023-02-01T03:57:09;101698.47;;;3.65;100.00
57056;BME280;42945;51.718;5.324;2023-02-01T03:59:44;101711.72;;;3.56;100.00
57056;BME280;42945;51.718;5.324;2023-02-01T04:02:10;101696.16;;;3.45;100.00
57056;BME280;42945;51.718;5.324;2023-02-01T04:04:36;101690.81;;;3.51;100.00
57056;BME280;42945;51.718;5.324;2023-02-01T04:07:02;101754.50;;;3.60;100.00
57056;BME280;42945;51.718;5.324;2023-02-01T04:09:27;101682.03;;;3.54;100.00
57056;BME280;42945;51.718;5.324;2023-02-01T04:11:52;101711.84;;;3.47;100.00
57056;BME280;42945;51.718;5.324;2023-02-01T04:14:18;101696.25;;;3.38;100.00
57056;BME280;42945;51.718;5.324;2023-02-01T04:16:43;101716.91;;;3.61;100.00
57056;BME280;42945;51.718;5.324;2023-02-01T04:19:09;101719.66;;;3.53;100.00
57056;BME280;42945;51.718;5.324;2023-02-01T04:21:36;101582.63;;;2.78;100.00
57056;BME280;42945;51.718;5.324;2023-02-01T04:24:02;101650.97;;;3.26;100.00
57056;BME280;42945;51.718;5.324;2023-02-01T04:26:27;101713.47;;;3.57;100.00
57056;BME280;42945;51.718;5.324;2023-02-01T04:28:52;101752.03;;;3.49;100.00
57056;BME280;42945;51.718;5.324;2023-02-01T04:31:18;101722.38;;;3.45;100.00
57056;BME280;42945;51.718;5.324;2023-02-01T04:33:51;101703.19;;;3.43;100.00
57056;BME280;42945;51.718;5.324;2023-02-01T04:36:18;101727.63;;;3.44;100.00
57056;BME280;42945;51.718;5.324;2023-02-01T04:38:45;101786.75;;;3.66;100.00
57056;BME280;42945;51.718;5.324;2023-02-01T04:41:11;101714.53;;;3.44;100.00
57056;BME280;42945;51.718;5.324;2023-02-01T04:43:36;101766.88;;;3.51;100.00
57056;BME280;42945;51.718;5.324;2023-02-01T04:46:01;101734.25;;;3.69;100.00
57056;BME280;42945;51.718;5.324;2023-02-01T04:48:27;101741.41;;;3.60;100.00
57056;BME280;42945;51.718;5.324;2023-02-01T04:50:53;101701.13;;;3.62;100.00
57056;BME280;42945;51.718;5.324;2023-02-01T04:53:18;101763.88;;;3.78;100.00
57056;BME280;42945;51.718;5.324;2023-02-01T04:55:44;101781.38;;;3.75;100.00
57056;BME280;42945;51.718;5.324;2023-02-01T04:58:10;101718.28;;;3.85;100.00
57056;BME280;42945;51.718;5.324;2023-02-01T05:00:36;101732.34;;;3.82;100.00
57056;BME280;42945;51.718;5.324;2023-02-01T05:03:02;101697.03;;;4.00;100.00
57056;BME280;42945;51.718;5.324;2023-02-01T05:05:28;101744.28;;;4.00;100.00
57056;BME280;42945;51.718;5.324;2023-02-01T05:07:53;101958.56;;;5.24;100.00
57056;BME280;42945;51.718;5.324;2023-02-01T05:10:18;101643.97;;;3.25;100.00
57056;BME280;42945;51.718;5.324;2023-02-01T05:12:44;101685.88;;;3.87;100.00
57056;BME280;42945;51.718;5.324;2023-02-01T05:15:30;101727.91;;;3.86;100.00
57056;BME280;42945;51.718;5.324;2023-02-01T05:17:56;101739.03;;;4.00;100.00
57056;BME280;42945;51.718;5.324;2023-02-01T05:20:23;101731.31;;;3.89;100.00
57056;BME280;42945;51.718;5.324;2023-02-01T05:22:49;101694.66;;;3.85;100.00
57056;BME280;42945;51.718;5.324;2023-02-01T05:25:14;101602.84;;;3.29;100.00
57056;BME280;42945;51.718;5.324;2023-02-01T05:27:40;101633.34;;;3.38;100.00
57056;BME280;42945;51.718;5.324;2023-02-01T05:30:07;101650.75;;;3.96;100.00
57056;BME280;42945;51.718;5.324;2023-02-01T05:32:33;101685.91;;;3.86;100.00
57056;BME280;42945;51.718;5.324;2023-02-01T05:34:58;101708.63;;;3.87;100.00
57056;BME280;42945;51.718;5.324;2023-02-01T05:37:24;101579.38;;;3.21;100.00
57056;BME280;42945;51.718;5.324;2023-02-01T05:39:49;101576.63;;;3.30;100.00
57056;BME280;42945;51.718;5.324;2023-02-01T05:42:16;101635.19;;;3.84;100.00
57056;BME280;42945;51.718;5.324;2023-02-01T05:44:41;101494.59;;;2.68;100.00
57056;BME280;42945;51.718;5.324;2023-02-01T05:47:07;101737.25;;;4.04;100.00
57056;BME280;42945;51.718;5.324;2023-02-01T05:49:32;101718.78;;;4.07;100.00
57056;BME280;42945;51.718;5.324;2023-02-01T05:51:57;101735.25;;;4.18;100.00
57056;BME280;42945;51.718;5.324;2023-02-01T05:54:23;101657.47;;;3.58;100.00
57056;BME280;42945;51.718;5.324;2023-02-01T05:56:48;101707.19;;;4.22;100.00
57056;BME280;42945;51.718;5.324;2023-02-01T05:59:13;101700.28;;;4.14;100.00
57056;BME280;42945;51.718;5.324;2023-02-01T06:01:39;101692.00;;;4.39;100.00
57056;BME280;42945;51.718;5.324;2023-02-01T06:04:04;101622.38;;;3.68;100.00
57056;BME280;42945;51.718;5.324;2023-02-01T06:06:29;101761.34;;;4.29;100.00
57056;BME280;42945;51.718;5.324;2023-02-01T06:08:55;101745.47;;;4.35;100.00
57056;BME280;42945;51.718;5.324;2023-02-01T06:11:20;101552.44;;;3.64;100.00
57056;BME280;42945;51.718;5.324;2023-02-01T06:13:45;101700.81;;;4.37;100.00
57056;BME280;42945;51.718;5.324;2023-02-01T06:16:11;101757.63;;;4.42;100.00
57056;BME280;42945;51.718;5.324;2023-02-01T06:18:36;101735.66;;;4.45;100.00
57056;BME280;42945;51.718;5.324;2023-02-01T06:21:03;101727.78;;;4.46;100.00
57056;BME280;42945;51.718;5.324;2023-02-01T06:23:29;101691.16;;;4.37;100.00
57056;BME280;42945;51.718;5.324;2023-02-01T06:26:06;101749.72;;;4.42;100.00
57056;BME280;42945;51.718;5.324;2023-02-01T06:28:33;101721.84;;;4.35;100.00
57056;BME280;42945;51.718;5.324;2023-02-01T06:31:03;101746.91;;;4.53;100.00
57056;BME280;42945;51.718;5.324;2023-02-01T06:33:32;101739.28;;;4.39;100.00
57056;BME280;42945;51.718;5.324;2023-02-01T06:36:01;101753.00;;;4.55;100.00
57056;BME280;42945;51.718;5.324;2023-02-01T06:38:29;101583.84;;;3.70;100.00
57056;BME280;42945;51.718;5.324;2023-02-01T06:40:55;101739.28;;;4.38;100.00
57056;BME280;42945;51.718;5.324;2023-02-01T06:43:23;101748.81;;;4.43;100.00
57056;BME280;42945;51.718;5.324;2023-02-01T06:45:48;101734.13;;;4.33;100.00
57056;BME280;42945;51.718;5.324;2023-02-01T06:48:14;101648.63;;;3.65;100.00
57056;BME280;42945;51.718;5.324;2023-02-01T06:50:39;101655.63;;;4.18;100.00
57056;BME280;42945;51.718;5.324;2023-02-01T06:53:04;101631.34;;;3.52;100.00
57056;BME280;42945;51.718;5.324;2023-02-01T06:55:30;101744.88;;;4.19;100.00
57056;BME280;42945;51.718;5.324;2023-02-01T06:57:55;101744.16;;;4.08;100.00
57056;BME280;42945;51.718;5.324;2023-02-01T07:00:23;101750.28;;;4.08;100.00
57056;BME280;42945;51.718;5.324;2023-02-01T07:02:50;101596.56;;;3.39;100.00
57056;BME280;42945;51.718;5.324;2023-02-01T07:05:15;101759.94;;;4.06;100.00
57056;BME280;42945;51.718;5.324;2023-02-01T07:07:40;101722.47;;;3.97;100.00
57056;BME280;42945;51.718;5.324;2023-02-01T07:10:06;101704.13;;;3.93;100.00
57056;BME280;42945;51.718;5.324;2023-02-01T07:12:31;101628.13;;;3.34;100.00
57056;BME280;42945;51.718;5.324;2023-02-01T07:14:57;101740.81;;;4.00;100.00
57056;BME280;42945;51.718;5.324;2023-02-01T07:17:23;101783.75;;;3.94;100.00
57056;BME280;42945;51.718;5.324;2023-02-01T07:19:48;101749.63;;;3.96;100.00
57056;BME280;42945;51.718;5.324;2023-02-01T07:22:16;101760.06;;;3.97;100.00
57056;BME280;42945;51.718;5.324;2023-02-01T07:24:42;101734.03;;;3.83;100.00
57056;BME280;42945;51.718;5.324;2023-02-01T07:27:07;101738.47;;;3.80;100.00
57056;BME280;42945;51.718;5.324;2023-02-01T07:29:32;101698.06;;;3.91;100.00
57056;BME280;42945;51.718;5.324;2023-02-01T07:31:58;101658.84;;;3.26;100.00
57056;BME280;42945;51.718;5.324;2023-02-01T07:34:23;101754.16;;;3.86;100.00
57056;BME280;42945;51.718;5.324;2023-02-01T07:36:48;101725.41;;;3.78;100.00
57056;BME280;42945;51.718;5.324;2023-02-01T07:39:14;101764.78;;;3.77;100.00
57056;BME280;42945;51.718;5.324;2023-02-01T07:41:39;101712.19;;;3.83;100.00
57056;BME280;42945;51.718;5.324;2023-02-01T07:44:04;101808.28;;;3.91;100.00
57056;BME280;42945;51.718;5.324;2023-02-01T07:46:30;101718.19;;;3.91;100.00
57056;BME280;42945;51.718;5.324;2023-02-01T07:48:55;101751.34;;;3.95;100.00
57056;BME280;42945;51.718;5.324;2023-02-01T07:51:20;101752.38;;;3.88;100.00
57056;BME280;42945;51.718;5.324;2023-02-01T07:53:46;101793.50;;;3.86;100.00
57056;BME280;42945;51.718;5.324;2023-02-01T07:56:13;101811.81;;;3.89;100.00
57056;BME280;42945;51.718;5.324;2023-02-01T07:58:39;101795.88;;;4.03;100.00
57056;BME280;42945;51.718;5.324;2023-02-01T08:01:04;101738.19;;;4.00;100.00
57056;BME280;42945;51.718;5.324;2023-02-01T08:03:45;101641.19;;;3.38;100.00
57056;BME280;42945;51.718;5.324;2023-02-01T08:06:11;101621.13;;;3.35;100.00
57056;BME280;42945;51.718;5.324;2023-02-01T08:08:36;101647.41;;;3.30;100.00
57056;BME280;42945;51.718;5.324;2023-02-01T08:11:03;101670.81;;;3.43;100.00
57056;BME280;42945;51.718;5.324;2023-02-01T08:13:31;101715.81;;;3.74;100.00
57056;BME280;42945;51.718;5.324;2023-02-01T08:16:03;101783.53;;;4.09;100.00
57056;BME280;42945;51.718;5.324;2023-02-01T08:18:29;101806.94;;;4.23;100.00
57056;BME280;42945;51.718;5.324;2023-02-01T08:20:54;101902.56;;;4.67;100.00
57056;BME280;42945;51.718;5.324;2023-02-01T08:23:21;101637.66;;;3.40;100.00
57056;BME280;42945;51.718;5.324;2023-02-01T08:25:47;101764.94;;;4.22;100.00
57056;BME280;42945;51.718;5.324;2023-02-01T08:28:12;101759.72;;;4.19;100.00
57056;BME280;42945;51.718;5.324;2023-02-01T08:30:38;101784.31;;;4.14;100.00
57056;BME280;42945;51.718;5.324;2023-02-01T08:33:04;101802.41;;;4.33;100.00
57056;BME280;42945;51.718;5.324;2023-02-01T08:35:32;101783.34;;;4.19;100.00
57056;BME280;42945;51.718;5.324;2023-02-01T08:37:59;101883.69;;;4.95;100.00
57056;BME280;42945;51.718;5.324;2023-02-01T08:40:24;101785.91;;;4.25;100.00
57056;BME280;42945;51.718;5.324;2023-02-01T08:42:49;101969.41;;;5.04;100.00
57056;BME280;42945;51.718;5.324;2023-02-01T08:45:19;101728.59;;;4.48;100.00
57056;BME280;42945;51.718;5.324;2023-02-01T08:47:46;101771.44;;;4.52;100.00
57056;BME280;42945;51.718;5.324;2023-02-01T08:50:12;101722.41;;;4.51;100.00
57056;BME280;42945;51.718;5.324;2023-02-01T08:52:38;101718.03;;;4.51;100.00
57056;BME280;42945;51.718;5.324;2023-02-01T08:55:05;101708.13;;;4.66;100.00
57056;BME280;42945;51.718;5.324;2023-02-01T08:57:33;101666.22;;;4.13;100.00
57056;BME280;42945;51.718;5.324;2023-02-01T09:00:00;101771.91;;;4.74;100.00
57056;BME280;42945;51.718;5.324;2023-02-01T09:02:26;101717.88;;;4.59;100.00
57056;BME280;42945;51.718;5.324;2023-02-01T09:04:52;101750.03;;;4.75;100.00
57056;BME280;42945;51.718;5.324;2023-02-01T09:07:17;101719.25;;;4.80;100.00
57056;BME280;42945;51.718;5.324;2023-02-01T09:09:43;101758.63;;;4.83;100.00
57056;BME280;42945;51.718;5.324;2023-02-01T09:12:09;101723.66;;;4.78;100.00
57056;BME280;42945;51.718;5.324;2023-02-01T09:14:34;101756.66;;;4.95;100.00
57056;BME280;42945;51.718;5.324;2023-02-01T09:17:00;101617.06;;;4.21;100.00
57056;BME280;42945;51.718;5.324;2023-02-01T09:19:25;101584.41;;;4.34;100.00
57056;BME280;42945;51.718;5.324;2023-02-01T09:21:50;101679.44;;;5.00;100.00
57056;BME280;42945;51.718;5.324;2023-02-01T09:24:16;101594.88;;;4.36;100.00
57056;BME280;42945;51.718;5.324;2023-02-01T09:26:41;101744.69;;;4.78;100.00
57056;BME280;42945;51.718;5.324;2023-02-01T09:29:06;101753.63;;;5.15;100.00
57056;BME280;42945;51.718;5.324;2023-02-01T09:31:38;101619.91;;;4.54;100.00
57056;BME280;42945;51.718;5.324;2023-02-01T09:34:05;101623.44;;;4.53;100.00
57056;BME280;42945;51.718;5.324;2023-02-01T09:36:31;101741.19;;;5.21;100.00
57056;BME280;42945;51.718;5.324;2023-02-01T09:38:56;101717.59;;;5.18;100.00
57056;BME280;42945;51.718;5.324;2023-02-01T09:44:42;101727.97;;;5.65;100.00
57056;BME280;42945;51.718;5.324;2023-02-01T09:47:17;101708.78;;;5.60;100.00
57056;BME280;42945;51.718;5.324;2023-02-01T09:49:57;101703.50;;;5.61;100.00
57056;BME280;42945;51.718;5.324;2023-02-01T09:52:29;101689.81;;;5.83;100.00
57056;BME280;42945;51.718;5.324;2023-02-01T09:55:00;101737.31;;;5.80;100.00
57056;BME280;42945;51.718;5.324;2023-02-01T09:57:53;101708.69;;;6.03;100.00
57056;BME280;42945;51.718;5.324;2023-02-01T10:00:25;101726.53;;;5.89;100.00
57056;BME280;42945;51.718;5.324;2023-02-01T10:02:58;101741.44;;;5.90;100.00
57056;BME280;42945;51.718;5.324;2023-02-01T10:05:42;101718.41;;;6.00;100.00
57056;BME280;42945;51.718;5.324;2023-02-01T10:10:48;101723.16;;;5.84;100.00
57056;BME280;42945;51.718;5.324;2023-02-01T10:16:02;101798.69;;;5.80;100.00
57056;BME280;42945;51.718;5.324;2023-02-01T10:18:51;101608.97;;;5.16;100.00
57056;BME280;42945;51.718;5.324;2023-02-01T10:21:40;101641.38;;;5.17;100.00
57056;BME280;42945;51.718;5.324;2023-02-01T10:24:26;101737.38;;;5.75;100.00
57056;BME280;42945;51.718;5.324;2023-02-01T10:27:06;101670.31;;;5.15;100.00
57056;BME280;42945;51.718;5.324;2023-02-01T10:29:37;101748.09;;;5.67;100.00
57056;BME280;42945;51.718;5.324;2023-02-01T10:32:11;101713.06;;;5.65;100.00
57056;BME280;42945;51.718;5.324;2023-02-01T10:34:38;101718.34;;;5.64;100.00
57056;BME280;42945;51.718;5.324;2023-02-01T10:37:24;101728.69;;;5.71;100.00
57056;BME280;42945;51.718;5.324;2023-02-01T10:39:54;101695.16;;;5.42;100.00
57056;BME280;42945;51.718;5.324;2023-02-01T10:42:25;101665.47;;;4.97;100.00
57056;BME280;42945;51.718;5.324;2023-02-01T10:44:52;101723.88;;;5.53;100.00
57056;BME280;42945;51.718;5.324;2023-02-01T10:47:19;101748.59;;;5.83;100.00
57056;BME280;42945;51.718;5.324;2023-02-01T10:52:38;102107.56;;;5.81;100.00
57056;BME280;42945;51.718;5.324;2023-02-01T10:55:27;101644.16;;;5.09;100.00
57056;BME280;42945;51.718;5.324;2023-02-01T10:57:58;101750.47;;;5.80;100.00
57056;BME280;42945;51.718;5.324;2023-02-01T11:00:24;101727.97;;;5.66;100.00
57056;BME280;42945;51.718;5.324;2023-02-01T11:02:52;101712.28;;;5.60;100.00
57056;BME280;42945;51.718;5.324;2023-02-01T11:05:18;101722.72;;;5.65;100.00
57056;BME280;42945;51.718;5.324;2023-02-01T11:07:49;101702.00;;;5.49;100.00
57056;BME280;42945;51.718;5.324;2023-02-01T11:10:41;101683.56;;;5.51;100.00
57056;BME280;42945;51.718;5.324;2023-02-01T11:13:14;101709.88;;;5.51;100.00
57056;BME280;42945;51.718;5.324;2023-02-01T11:15:46;101674.97;;;5.43;100.00
57056;BME280;42945;51.718;5.324;2023-02-01T11:18:20;101665.56;;;4.92;100.00
57056;BME280;42945;51.718;5.324;2023-02-01T11:20:50;101548.34;;;4.83;100.00
57056;BME280;42945;51.718;5.324;2023-02-01T11:23:20;101728.34;;;5.48;100.00
57056;BME280;42945;51.718;5.324;2023-02-01T11:26:01;101739.78;;;5.47;100.00
57056;BME280;42945;51.718;5.324;2023-02-01T11:28:29;101706.28;;;5.55;100.00
57056;BME280;42945;51.718;5.324;2023-02-01T11:30:59;101684.72;;;5.77;100.00
57056;BME280;42945;51.718;5.324;2023-02-01T11:33:30;101670.19;;;5.60;100.00
57056;BME280;42945;51.718;5.324;2023-02-01T11:35:59;101704.97;;;5.73;100.00
57056;BME280;42945;51.718;5.324;2023-02-01T11:38:29;101669.75;;;5.79;100.00
57056;BME280;42945;51.718;5.324;2023-02-01T11:40:55;101703.28;;;5.70;100.00
57056;BME280;42945;51.718;5.324;2023-02-01T11:43:35;101690.00;;;5.75;100.00
57056;BME280;42945;51.718;5.324;2023-02-01T11:46:02;101672.38;;;5.79;100.00
57056;BME280;42945;51.718;5.324;2023-02-01T11:48:32;101560.69;;;5.19;100.00
57056;BME280;42945;51.718;5.324;2023-02-01T11:56:36;101673.16;;;5.84;100.00
57056;BME280;42945;51.718;5.324;2023-02-01T11:59:30;101659.22;;;5.79;100.00
57056;BME280;42945;51.718;5.324;2023-02-01T12:02:16;101588.06;;;5.10;100.00
57056;BME280;42945;51.718;5.324;2023-02-01T12:07:49;101662.44;;;5.91;100.00
57056;BME280;42945;51.718;5.324;2023-02-01T12:13:23;101671.44;;;5.81;100.00
57056;BME280;42945;51.718;5.324;2023-02-01T12:18:37;101578.16;;;5.21;100.00
57056;BME280;42945;51.718;5.324;2023-02-01T12:26:50;101666.72;;;5.97;100.00
57056;BME280;42945;51.718;5.324;2023-02-01T12:29:37;101637.03;;;5.89;100.00
57056;BME280;42945;51.718;5.324;2023-02-01T12:32:25;101657.72;;;6.04;100.00
57056;BME280;42945;51.718;5.324;2023-02-01T12:45:46;101631.31;;;6.07;100.00
57056;BME280;42945;51.718;5.324;2023-02-01T12:50:55;101645.31;;;6.09;100.00
57056;BME280;42945;51.718;5.324;2023-02-01T12:56:03;101541.41;;;5.54;100.00
57056;BME280;42945;51.718;5.324;2023-02-01T13:01:03;101692.31;;;6.25;100.00
57056;BME280;42945;51.718;5.324;2023-02-01T13:06:02;101649.59;;;6.46;100.00
57056;BME280;42945;51.718;5.324;2023-02-01T13:08:42;101652.97;;;6.52;100.00
57056;BME280;42945;51.718;5.324;2023-02-01T13:11:16;101645.50;;;6.67;100.00
57056;BME280;42945;51.718;5.324;2023-02-01T13:13:54;101598.84;;;6.71;100.00
57056;BME280;42945;51.718;5.324;2023-02-01T13:16:24;101609.38;;;6.71;100.00
57056;BME280;42945;51.718;5.324;2023-02-01T13:18:59;101641.31;;;6.90;100.00
57056;BME280;42945;51.718;5.324;2023-02-01T13:21:31;101591.19;;;6.92;100.00
57056;BME280;42945;51.718;5.324;2023-02-01T13:23:57;101494.53;;;6.33;100.00
57056;BME280;42945;51.718;5.324;2023-02-01T13:26:23;101646.66;;;6.88;100.00
57056;BME280;42945;51.718;5.324;2023-02-01T13:28:58;101658.66;;;6.99;100.00
57056;BME280;42945;51.718;5.324;2023-02-01T13:40:29;101657.69;;;6.72;100.00
57056;BME280;42945;51.718;5.324;2023-02-01T13:43:05;101647.66;;;6.84;100.00
57056;BME280;42945;51.718;5.324;2023-02-01T13:45:35;101529.44;;;6.09;100.00
57056;BME280;42945;51.718;5.324;2023-02-01T13:48:04;101660.38;;;7.00;100.00
57056;BME280;42945;51.718;5.324;2023-02-01T13:50:34;101644.81;;;6.92;100.00
57056;BME280;42945;51.718;5.324;2023-02-01T13:53:16;101533.19;;;6.01;100.00
57056;BME280;42945;51.718;5.324;2023-02-01T13:56:01;101699.81;;;6.73;100.00
57056;BME280;42945;51.718;5.324;2023-02-01T13:58:36;101609.00;;;6.54;100.00
57056;BME280;42945;51.718;5.324;2023-02-01T14:06:40;101642.09;;;6.64;100.00
57056;BME280;42945;51.718;5.324;2023-02-01T14:17:30;101520.38;;;5.87;100.00
57056;BME280;42945;51.718;5.324;2023-02-01T14:19:31;101672.38;;;6.47;100.00
57056;BME280;42945;51.718;5.324;2023-02-01T14:21:59;101555.59;;;5.81;100.00
57056;BME280;42945;51.718;5.324;2023-02-01T14:24:32;101654.13;;;6.41;100.00
57056;BME280;42945;51.718;5.324;2023-02-01T14:27:07;101662.84;;;6.43;100.00
57056;BME280;42945;51.718;5.324;2023-02-01T14:29:42;101621.84;;;6.33;100.00
57056;BME280;42945;51.718;5.324;2023-02-01T14:32:17;101525.88;;;5.78;100.00
57056;BME280;42945;51.718;5.324;2023-02-01T14:55:58;101688.78;;;6.26;100.00